»·PEaware :: CFEGU M94-S36

CFEGU :: M94-S36

FLIGHT INFORMATION

Flight Status: Arrived
Operator: Unknown
More flights by this operator :: More flights under this callsign
Pilot: Vincent M. (370)
Aircraft: CESSNA 172 SKYHAWK
(C172)
More flights by this aircraft type
Origin: M94 Desert Aire
United States
Destination: S36 Norman Grier Field
United States
More flights between these airports :: More routes between these airports
Route:
File this flight plan on PilotEdge
Remarks: Washington Alphabet Challenge
Altitude:
(Current/Filed)
8,500ft
Speed:
(Current/Filed)
110kts
Departed: 03-May-20 11:36 AM
Arrived: 03-May-20 12:34 PM
Distance/Time
Traveled:
98nm/0:58
Distance/Time
To Go:
Arrived

Flight Plot

Page will automatically refresh every two minutes.

Flight plan parsing failed; only flown route is shown


Map Options




Map Legend


Flown Route
Filed Route
Departure Airport
Arrival Airport
Navaid (VOR, NDB)
Fix

Horizontal Profiles

Position Reports

Time Latitude Longitude Heading Altitude Ground
Speed
03-May-20 11:32 46.686399 -119.919487 35 588ft 0kts
03-May-20 11:33 46.686253 -119.918497 115 589ft 12kts
03-May-20 11:34 46.684684 -119.913489 23 589ft 0kts
03-May-20 11:35 46.691870 -119.934792 291 1145ft 82kts
03-May-20 11:36 46.700885 -119.965673 292 2094ft 88kts
03-May-20 11:37 46.710285 -119.997243 292 3019ft 84kts
03-May-20 11:38 46.720004 -120.029446 293 3808ft 88kts
03-May-20 11:39 46.729967 -120.062026 293 4549ft 88kts
03-May-20 11:40 46.740197 -120.095143 293 5235ft 90kts
03-May-20 11:41 46.750458 -120.128312 293 6006ft 90kts
03-May-20 11:42 46.760960 -120.161997 293 6762ft 92kts
03-May-20 11:43 46.771636 -120.195963 293 7473ft 93kts
03-May-20 11:44 46.781857 -120.230632 292 8144ft 94kts
03-May-20 11:45 46.792668 -120.267267 294 8503ft 107kts
03-May-20 11:46 46.805292 -120.307885 295 8500ft 111kts
03-May-20 11:47 46.817327 -120.349673 292 8500ft 112kts
03-May-20 11:48 46.829030 -120.392113 292 8500ft 112kts
03-May-20 11:49 46.840802 -120.434419 292 8499ft 112kts
03-May-20 11:50 46.852687 -120.476766 293 8499ft 112kts
03-May-20 11:51 46.864664 -120.519075 293 8499ft 112kts
03-May-20 11:52 46.876703 -120.561253 293 8499ft 112kts
03-May-20 11:53 46.888865 -120.603508 293 8499ft 112kts
03-May-20 11:54 46.901129 -120.645772 293 8499ft 112kts
03-May-20 11:55 46.913495 -120.688039 293 8499ft 112kts
03-May-20 11:56 46.925909 -120.730136 293 8499ft 112kts
03-May-20 11:57 46.938096 -120.772430 292 8499ft 112kts
03-May-20 11:58 46.951062 -120.814349 295 8499ft 112kts
03-May-20 11:59 46.964461 -120.855762 295 8499ft 113kts
03-May-20 12:00 46.977989 -120.897267 295 8499ft 113kts
03-May-20 12:01 46.991626 -120.938801 296 8499ft 113kts
03-May-20 12:02 47.005340 -120.980265 296 8499ft 113kts
03-May-20 12:03 47.019110 -121.021603 296 8499ft 113kts
03-May-20 12:04 47.032643 -121.062173 296 8499ft 109kts
03-May-20 12:05 47.045866 -121.101808 296 8499ft 108kts
03-May-20 12:06 47.059136 -121.141383 296 8499ft 107kts
03-May-20 12:07 47.072411 -121.180725 296 8500ft 107kts
03-May-20 12:08 47.085751 -121.219986 296 8500ft 107kts
03-May-20 12:09 47.096793 -121.260814 287 8499ft 107kts
03-May-20 12:10 47.103735 -121.303456 283 8500ft 107kts
03-May-20 12:11 47.111175 -121.346054 285 8500ft 107kts
03-May-20 12:12 47.118980 -121.388533 285 8500ft 107kts
03-May-20 12:13 47.126857 -121.430926 285 8500ft 109kts
03-May-20 12:14 47.135112 -121.474431 286 8500ft 110kts
03-May-20 12:15 47.143512 -121.518065 286 8499ft 111kts
03-May-20 12:16 47.151742 -121.561782 283 8499ft 111kts
03-May-20 12:17 47.158780 -121.606116 284 8499ft 111kts
03-May-20 12:18 47.165869 -121.650270 283 8498ft 111kts
03-May-20 12:19 47.170023 -121.695816 267 8088ft 118kts
03-May-20 12:20 47.168425 -121.744359 268 7088ft 119kts
03-May-20 12:21 47.167144 -121.792951 268 6081ft 118kts
03-May-20 12:22 47.165985 -121.840973 268 5078ft 117kts
03-May-20 12:23 47.164915 -121.886181 267 4495ft 96kts
03-May-20 12:24 47.165261 -121.928649 290 3745ft 112kts
03-May-20 12:25 47.180317 -121.968435 302 2742ft 110kts
03-May-20 12:26 47.195734 -122.004847 302 2503ft 102kts
03-May-20 12:27 47.212283 -122.038832 311 2502ft 102kts
03-May-20 12:28 47.233073 -122.066781 331 2503ft 101kts
03-May-20 12:29 47.261580 -122.082667 341 1625ft 114kts
03-May-20 12:30 47.286591 -122.092391 353 1427ft 78kts
03-May-20 12:31 47.308341 -122.096850 351 1155ft 81kts
03-May-20 12:32 47.329125 -122.101772 351 673ft 74kts
03-May-20 12:33 47.341213 -122.104550 349 476ft 14kts
03-May-20 12:34 47.340084 -122.103542 319 476ft 0kts
03-May-20 12:35 47.340084 -122.103542 319 476ft 0kts
03-May-20 12:36 47.340084 -122.103542 319 476ft 0kts
03-May-20 12:38 47.340084 -122.103542 319 476ft 0kts

Navigation Log

Ident Type
Flight plan parsing failed, navigation log unavailable